sensor_id;sensor_type;location;lat;lon;timestamp;P1;durP1;ratioP1;P2;durP2;ratioP2
25351;SDS011;13304;48.464;8.712;2023-11-19T00:02:18;8.15;;;3.38;;
25351;SDS011;13304;48.464;8.712;2023-11-19T00:04:44;3.83;;;2.60;;
25351;SDS011;13304;48.464;8.712;2023-11-19T00:07:10;5.25;;;2.67;;
25351;SDS011;13304;48.464;8.712;2023-11-19T00:09:38;5.15;;;2.65;;
25351;SDS011;13304;48.464;8.712;2023-11-19T00:12:04;4.30;;;2.42;;
25351;SDS011;13304;48.464;8.712;2023-11-19T00:14:31;10.02;;;2.55;;
25351;SDS011;13304;48.464;8.712;2023-11-19T00:16:56;3.15;;;2.05;;
25351;SDS011;13304;48.464;8.712;2023-11-19T00:19:22;3.35;;;2.42;;
25351;SDS011;13304;48.464;8.712;2023-11-19T00:21:48;4.97;;;2.50;;
25351;SDS011;13304;48.464;8.712;2023-11-19T00:24:13;4.35;;;2.50;;
25351;SDS011;13304;48.464;8.712;2023-11-19T00:26:41;3.40;;;2.30;;
25351;SDS011;13304;48.464;8.712;2023-11-19T00:29:07;4.78;;;2.05;;
25351;SDS011;13304;48.464;8.712;2023-11-19T00:31:33;6.88;;;2.22;;
25351;SDS011;13304;48.464;8.712;2023-11-19T00:33:59;4.05;;;2.00;;
25351;SDS011;13304;48.464;8.712;2023-11-19T00:36:24;3.63;;;2.47;;
25351;SDS011;13304;48.464;8.712;2023-11-19T00:38:50;2.17;;;1.75;;
25351;SDS011;13304;48.464;8.712;2023-11-19T00:41:17;4.47;;;1.60;;
25351;SDS011;13304;48.464;8.712;2023-11-19T00:43:44;3.10;;;1.52;;
25351;SDS011;13304;48.464;8.712;2023-11-19T00:46:09;2.25;;;1.40;;
25351;SDS011;13304;48.464;8.712;2023-11-19T00:48:38;3.55;;;1.25;;
25351;SDS011;13304;48.464;8.712;2023-11-19T00:51:04;1.85;;;1.25;;
25351;SDS011;13304;48.464;8.712;2023-11-19T00:53:30;2.05;;;1.33;;
25351;SDS011;13304;48.464;8.712;2023-11-19T00:55:57;2.78;;;1.23;;
25351;SDS011;13304;48.464;8.712;2023-11-19T00:58:22;5.00;;;0.80;;
25351;SDS011;13304;48.464;8.712;2023-11-19T01:00:48;2.22;;;0.80;;
25351;SDS011;13304;48.464;8.712;2023-11-19T01:03:14;1.17;;;0.80;;
25351;SDS011;13304;48.464;8.712;2023-11-19T01:05:41;2.22;;;0.90;;
25351;SDS011;13304;48.464;8.712;2023-11-19T01:08:06;4.05;;;0.70;;
25351;SDS011;13304;48.464;8.712;2023-11-19T01:10:33;1.58;;;0.75;;
25351;SDS011;13304;48.464;8.712;2023-11-19T01:12:59;1.92;;;0.90;;
25351;SDS011;13304;48.464;8.712;2023-11-19T01:15:25;23.48;;;1.63;;
25351;SDS011;13304;48.464;8.712;2023-11-19T01:17:51;1.75;;;0.90;;
25351;SDS011;13304;48.464;8.712;2023-11-19T01:20:16;3.22;;;1.00;;
25351;SDS011;13304;48.464;8.712;2023-11-19T01:22:43;2.35;;;0.90;;
25351;SDS011;13304;48.464;8.712;2023-11-19T01:25:08;1.95;;;0.65;;
25351;SDS011;13304;48.464;8.712;2023-11-19T01:27:34;1.58;;;0.63;;
25351;SDS011;13304;48.464;8.712;2023-11-19T01:30:03;1.48;;;0.57;;
25351;SDS011;13304;48.464;8.712;2023-11-19T01:32:30;0.70;;;0.60;;
25351;SDS011;13304;48.464;8.712;2023-11-19T01:34:56;0.98;;;0.50;;
25351;SDS011;13304;48.464;8.712;2023-11-19T01:37:21;0.80;;;0.60;;
25351;SDS011;13304;48.464;8.712;2023-11-19T01:39:47;1.73;;;0.82;;
25351;SDS011;13304;48.464;8.712;2023-11-19T01:42:12;5.22;;;1.25;;
25351;SDS011;13304;48.464;8.712;2023-11-19T01:44:38;3.45;;;0.63;;
25351;SDS011;13304;48.464;8.712;2023-11-19T01:47:04;0.80;;;0.57;;
25351;SDS011;13304;48.464;8.712;2023-11-19T01:49:32;0.30;;;0.30;;
25351;SDS011;13304;48.464;8.712;2023-11-19T01:51:58;3.88;;;0.30;;
25351;SDS011;13304;48.464;8.712;2023-11-19T01:54:24;0.38;;;0.38;;
25351;SDS011;13304;48.464;8.712;2023-11-19T01:56:50;0.30;;;0.30;;
25351;SDS011;13304;48.464;8.712;2023-11-19T01:59:21;0.43;;;0.35;;
25351;SDS011;13304;48.464;8.712;2023-11-19T02:01:51;0.80;;;0.40;;
25351;SDS011;13304;48.464;8.712;2023-11-19T02:04:19;0.57;;;0.30;;
25351;SDS011;13304;48.464;8.712;2023-11-19T02:06:45;0.43;;;0.32;;
25351;SDS011;13304;48.464;8.712;2023-11-19T02:09:13;0.40;;;0.40;;
25351;SDS011;13304;48.464;8.712;2023-11-19T02:11:39;1.08;;;0.40;;
25351;SDS011;13304;48.464;8.712;2023-11-19T02:14:05;4.57;;;0.28;;
25351;SDS011;13304;48.464;8.712;2023-11-19T02:16:31;0.40;;;0.30;;
25351;SDS011;13304;48.464;8.712;2023-11-19T02:18:57;0.28;;;0.28;;
25351;SDS011;13304;48.464;8.712;2023-11-19T02:21:23;0.20;;;0.20;;
25351;SDS011;13304;48.464;8.712;2023-11-19T02:23:49;1.15;;;0.30;;
25351;SDS011;13304;48.464;8.712;2023-11-19T02:26:24;0.47;;;0.30;;
25351;SDS011;13304;48.464;8.712;2023-11-19T02:29:04;0.32;;;0.30;;
25351;SDS011;13304;48.464;8.712;2023-11-19T02:31:31;0.68;;;0.30;;
25351;SDS011;13304;48.464;8.712;2023-11-19T02:33:57;1.17;;;0.28;;
25351;SDS011;13304;48.464;8.712;2023-11-19T02:36:25;0.50;;;0.30;;
25351;SDS011;13304;48.464;8.712;2023-11-19T02:38:50;0.45;;;0.30;;
25351;SDS011;13304;48.464;8.712;2023-11-19T02:41:16;0.30;;;0.28;;
25351;SDS011;13304;48.464;8.712;2023-11-19T02:43:42;2.10;;;0.28;;
25351;SDS011;13304;48.464;8.712;2023-11-19T02:46:07;1.27;;;0.40;;
25351;SDS011;13304;48.464;8.712;2023-11-19T02:48:34;0.60;;;0.20;;
25351;SDS011;13304;48.464;8.712;2023-11-19T02:51:00;0.60;;;0.30;;
25351;SDS011;13304;48.464;8.712;2023-11-19T02:55:55;0.60;;;0.25;;
25351;SDS011;13304;48.464;8.712;2023-11-19T02:58:27;0.70;;;0.30;;
25351;SDS011;13304;48.464;8.712;2023-11-19T03:00:54;0.93;;;0.40;;
25351;SDS011;13304;48.464;8.712;2023-11-19T03:06:03;0.20;;;0.20;;
25351;SDS011;13304;48.464;8.712;2023-11-19T03:11:00;0.20;;;0.20;;
25351;SDS011;13304;48.464;8.712;2023-11-19T03:13:25;0.95;;;0.30;;
25351;SDS011;13304;48.464;8.712;2023-11-19T03:15:51;0.20;;;0.20;;
25351;SDS011;13304;48.464;8.712;2023-11-19T03:18:18;0.50;;;0.22;;
25351;SDS011;13304;48.464;8.712;2023-11-19T03:20:45;0.20;;;0.20;;
25351;SDS011;13304;48.464;8.712;2023-11-19T03:23:11;0.20;;;0.20;;
25351;SDS011;13304;48.464;8.712;2023-11-19T03:25:40;0.63;;;0.30;;
25351;SDS011;13304;48.464;8.712;2023-11-19T03:28:05;0.30;;;0.30;;
25351;SDS011;13304;48.464;8.712;2023-11-19T03:30:31;0.68;;;0.20;;
25351;SDS011;13304;48.464;8.712;2023-11-19T03:32:57;1.30;;;0.38;;
25351;SDS011;13304;48.464;8.712;2023-11-19T03:35:24;0.25;;;0.25;;
25351;SDS011;13304;48.464;8.712;2023-11-19T03:37:50;2.08;;;0.30;;
25351;SDS011;13304;48.464;8.712;2023-11-19T03:40:16;0.30;;;0.20;;
25351;SDS011;13304;48.464;8.712;2023-11-19T03:42:43;0.57;;;0.20;;
25351;SDS011;13304;48.464;8.712;2023-11-19T03:45:12;1.25;;;0.30;;
25351;SDS011;13304;48.464;8.712;2023-11-19T03:47:38;0.90;;;0.30;;
25351;SDS011;13304;48.464;8.712;2023-11-19T03:50:05;0.75;;;0.20;;
25351;SDS011;13304;48.464;8.712;2023-11-19T03:52:33;0.30;;;0.30;;
25351;SDS011;13304;48.464;8.712;2023-11-19T03:54:58;0.88;;;0.40;;
25351;SDS011;13304;48.464;8.712;2023-11-19T03:57:24;1.02;;;0.30;;
25351;SDS011;13304;48.464;8.712;2023-11-19T03:59:50;0.55;;;0.20;;
25351;SDS011;13304;48.464;8.712;2023-11-19T04:02:16;0.20;;;0.20;;
25351;SDS011;13304;48.464;8.712;2023-11-19T04:04:42;0.20;;;0.20;;
25351;SDS011;13304;48.464;8.712;2023-11-19T04:07:07;0.68;;;0.60;;
25351;SDS011;13304;48.464;8.712;2023-11-19T04:09:33;0.20;;;0.20;;
25351;SDS011;13304;48.464;8.712;2023-11-19T04:11:59;0.30;;;0.30;;
25351;SDS011;13304;48.464;8.712;2023-11-19T04:14:25;0.38;;;0.20;;
25351;SDS011;13304;48.464;8.712;2023-11-19T04:16:52;0.28;;;0.20;;
25351;SDS011;13304;48.464;8.712;2023-11-19T04:19:18;0.25;;;0.25;;
25351;SDS011;13304;48.464;8.712;2023-11-19T04:21:44;0.30;;;0.20;;
25351;SDS011;13304;48.464;8.712;2023-11-19T04:24:10;0.30;;;0.30;;
25351;SDS011;13304;48.464;8.712;2023-11-19T04:26:42;0.30;;;0.30;;
25351;SDS011;13304;48.464;8.712;2023-11-19T04:29:11;0.28;;;0.28;;
25351;SDS011;13304;48.464;8.712;2023-11-19T04:31:37;0.38;;;0.20;;
25351;SDS011;13304;48.464;8.712;2023-11-19T04:34:03;2.83;;;0.20;;
25351;SDS011;13304;48.464;8.712;2023-11-19T04:36:28;0.30;;;0.30;;
25351;SDS011;13304;48.464;8.712;2023-11-19T04:38:54;0.30;;;0.30;;
25351;SDS011;13304;48.464;8.712;2023-11-19T04:41:20;0.20;;;0.20;;
25351;SDS011;13304;48.464;8.712;2023-11-19T04:43:46;0.20;;;0.20;;
25351;SDS011;13304;48.464;8.712;2023-11-19T04:46:12;0.57;;;0.30;;
25351;SDS011;13304;48.464;8.712;2023-11-19T04:48:37;0.68;;;0.30;;
25351;SDS011;13304;48.464;8.712;2023-11-19T04:51:06;0.30;;;0.20;;
25351;SDS011;13304;48.464;8.712;2023-11-19T04:53:32;0.20;;;0.20;;
25351;SDS011;13304;48.464;8.712;2023-11-19T04:55:58;0.20;;;0.20;;
25351;SDS011;13304;48.464;8.712;2023-11-19T04:58:24;0.20;;;0.20;;
25351;SDS011;13304;48.464;8.712;2023-11-19T05:00:50;1.55;;;0.40;;
25351;SDS011;13304;48.464;8.712;2023-11-19T05:03:15;0.43;;;0.22;;
25351;SDS011;13304;48.464;8.712;2023-11-19T05:05:41;1.63;;;0.40;;
25351;SDS011;13304;48.464;8.712;2023-11-19T05:08:06;0.73;;;0.40;;
25351;SDS011;13304;48.464;8.712;2023-11-19T05:10:32;0.40;;;0.35;;
25351;SDS011;13304;48.464;8.712;2023-11-19T05:12:58;0.70;;;0.43;;
25351;SDS011;13304;48.464;8.712;2023-11-19T05:15:23;0.20;;;0.20;;
25351;SDS011;13304;48.464;8.712;2023-11-19T05:17:49;0.55;;;0.40;;
25351;SDS011;13304;48.464;8.712;2023-11-19T05:20:15;0.30;;;0.30;;
25351;SDS011;13304;48.464;8.712;2023-11-19T05:22:41;0.40;;;0.40;;
25351;SDS011;13304;48.464;8.712;2023-11-19T05:25:07;0.28;;;0.28;;
25351;SDS011;13304;48.464;8.712;2023-11-19T05:27:37;0.30;;;0.30;;
25351;SDS011;13304;48.464;8.712;2023-11-19T05:30:03;0.45;;;0.30;;
25351;SDS011;13304;48.464;8.712;2023-11-19T05:32:32;0.38;;;0.30;;
25351;SDS011;13304;48.464;8.712;2023-11-19T05:34:58;0.88;;;0.30;;
25351;SDS011;13304;48.464;8.712;2023-11-19T05:37:23;0.38;;;0.30;;
25351;SDS011;13304;48.464;8.712;2023-11-19T05:39:50;0.93;;;0.43;;
25351;SDS011;13304;48.464;8.712;2023-11-19T05:42:16;3.22;;;0.30;;
25351;SDS011;13304;48.464;8.712;2023-11-19T05:44:42;1.33;;;0.60;;
25351;SDS011;13304;48.464;8.712;2023-11-19T05:47:08;0.88;;;0.65;;
25351;SDS011;13304;48.464;8.712;2023-11-19T05:49:33;2.28;;;1.70;;
25351;SDS011;13304;48.464;8.712;2023-11-19T05:51:59;1.85;;;0.90;;
25351;SDS011;13304;48.464;8.712;2023-11-19T05:54:26;0.60;;;0.40;;
25351;SDS011;13304;48.464;8.712;2023-11-19T05:56:52;1.42;;;0.60;;
25351;SDS011;13304;48.464;8.712;2023-11-19T05:59:19;1.30;;;0.60;;
25351;SDS011;13304;48.464;8.712;2023-11-19T06:01:45;0.90;;;0.55;;
25351;SDS011;13304;48.464;8.712;2023-11-19T06:04:11;0.73;;;0.60;;
25351;SDS011;13304;48.464;8.712;2023-11-19T06:06:37;0.43;;;0.32;;
25351;SDS011;13304;48.464;8.712;2023-11-19T06:09:03;0.57;;;0.50;;
25351;SDS011;13304;48.464;8.712;2023-11-19T06:11:29;0.30;;;0.30;;
25351;SDS011;13304;48.464;8.712;2023-11-19T06:13:55;0.77;;;0.40;;
25351;SDS011;13304;48.464;8.712;2023-11-19T06:16:21;0.65;;;0.47;;
25351;SDS011;13304;48.464;8.712;2023-11-19T06:18:47;1.10;;;0.80;;
25351;SDS011;13304;48.464;8.712;2023-11-19T06:21:12;1.98;;;0.82;;
25351;SDS011;13304;48.464;8.712;2023-11-19T06:23:38;0.43;;;0.43;;
25351;SDS011;13304;48.464;8.712;2023-11-19T06:26:04;0.50;;;0.50;;
25351;SDS011;13304;48.464;8.712;2023-11-19T06:28:30;0.98;;;0.70;;
25351;SDS011;13304;48.464;8.712;2023-11-19T06:30:56;1.48;;;0.60;;
25351;SDS011;13304;48.464;8.712;2023-11-19T06:33:23;0.77;;;0.50;;
25351;SDS011;13304;48.464;8.712;2023-11-19T06:35:49;0.63;;;0.55;;
25351;SDS011;13304;48.464;8.712;2023-11-19T06:38:15;2.03;;;1.40;;
25351;SDS011;13304;48.464;8.712;2023-11-19T06:40:43;2.65;;;1.48;;
25351;SDS011;13304;48.464;8.712;2023-11-19T06:43:09;0.50;;;0.50;;
25351;SDS011;13304;48.464;8.712;2023-11-19T06:45:35;0.73;;;0.50;;
25351;SDS011;13304;48.464;8.712;2023-11-19T06:48:02;0.38;;;0.38;;
25351;SDS011;13304;48.464;8.712;2023-11-19T06:50:29;0.30;;;0.30;;
25351;SDS011;13304;48.464;8.712;2023-11-19T06:52:54;0.60;;;0.50;;
25351;SDS011;13304;48.464;8.712;2023-11-19T06:55:20;0.98;;;0.55;;
25351;SDS011;13304;48.464;8.712;2023-11-19T06:57:45;0.80;;;0.40;;
25351;SDS011;13304;48.464;8.712;2023-11-19T07:00:11;3.45;;;0.40;;
25351;SDS011;13304;48.464;8.712;2023-11-19T07:02:37;0.38;;;0.30;;
25351;SDS011;13304;48.464;8.712;2023-11-19T07:05:04;0.50;;;0.30;;
25351;SDS011;13304;48.464;8.712;2023-11-19T07:07:30;0.82;;;0.20;;
25351;SDS011;13304;48.464;8.712;2023-11-19T07:09:57;0.50;;;0.30;;
25351;SDS011;13304;48.464;8.712;2023-11-19T07:12:23;0.25;;;0.22;;
25351;SDS011;13304;48.464;8.712;2023-11-19T07:14:52;1.48;;;0.60;;
25351;SDS011;13304;48.464;8.712;2023-11-19T07:17:18;2.00;;;0.88;;
25351;SDS011;13304;48.464;8.712;2023-11-19T07:19:46;4.40;;;2.50;;
25351;SDS011;13304;48.464;8.712;2023-11-19T07:24:40;0.85;;;0.50;;
25351;SDS011;13304;48.464;8.712;2023-11-19T07:27:06;0.70;;;0.60;;
25351;SDS011;13304;48.464;8.712;2023-11-19T07:29:33;0.98;;;0.77;;
25351;SDS011;13304;48.464;8.712;2023-11-19T07:32:00;0.85;;;0.50;;
25351;SDS011;13304;48.464;8.712;2023-11-19T07:34:27;2.25;;;0.90;;
25351;SDS011;13304;48.464;8.712;2023-11-19T07:36:52;0.95;;;0.57;;
25351;SDS011;13304;48.464;8.712;2023-11-19T07:39:18;1.10;;;0.50;;
25351;SDS011;13304;48.464;8.712;2023-11-19T07:41:46;6.68;;;1.42;;
25351;SDS011;13304;48.464;8.712;2023-11-19T07:44:11;1.08;;;0.70;;
25351;SDS011;13304;48.464;8.712;2023-11-19T07:46:37;1.27;;;0.70;;
25351;SDS011;13304;48.464;8.712;2023-11-19T07:49:03;1.00;;;0.82;;
25351;SDS011;13304;48.464;8.712;2023-11-19T07:51:28;1.08;;;0.60;;
25351;SDS011;13304;48.464;8.712;2023-11-19T07:53:54;0.30;;;0.30;;
25351;SDS011;13304;48.464;8.712;2023-11-19T07:56:20;0.38;;;0.32;;
25351;SDS011;13304;48.464;8.712;2023-11-19T07:58:45;1.25;;;0.50;;
25351;SDS011;13304;48.464;8.712;2023-11-19T08:01:11;0.73;;;0.57;;
25351;SDS011;13304;48.464;8.712;2023-11-19T08:03:37;0.70;;;0.50;;
25351;SDS011;13304;48.464;8.712;2023-11-19T08:06:03;1.17;;;0.50;;
25351;SDS011;13304;48.464;8.712;2023-11-19T08:08:29;0.57;;;0.43;;
25351;SDS011;13304;48.464;8.712;2023-11-19T08:10:57;2.05;;;0.40;;
25351;SDS011;13304;48.464;8.712;2023-11-19T08:13:24;3.78;;;0.63;;
25351;SDS011;13304;48.464;8.712;2023-11-19T08:15:50;1.67;;;0.98;;
25351;SDS011;13304;48.464;8.712;2023-11-19T08:18:16;0.90;;;0.60;;
25351;SDS011;13304;48.464;8.712;2023-11-19T08:20:43;2.85;;;1.38;;
25351;SDS011;13304;48.464;8.712;2023-11-19T08:23:09;2.10;;;1.30;;
25351;SDS011;13304;48.464;8.712;2023-11-19T08:25:35;2.83;;;1.38;;
25351;SDS011;13304;48.464;8.712;2023-11-19T08:28:01;1.70;;;1.13;;
25351;SDS011;13304;48.464;8.712;2023-11-19T08:30:28;1.88;;;1.05;;
25351;SDS011;13304;48.464;8.712;2023-11-19T08:32:54;2.08;;;1.15;;
25351;SDS011;13304;48.464;8.712;2023-11-19T08:35:20;4.57;;;1.65;;
25351;SDS011;13304;48.464;8.712;2023-11-19T08:37:46;2.92;;;2.03;;
25351;SDS011;13304;48.464;8.712;2023-11-19T08:40:12;10.30;;;5.95;;
25351;SDS011;13304;48.464;8.712;2023-11-19T08:42:40;6.72;;;3.63;;
25351;SDS011;13304;48.464;8.712;2023-11-19T08:45:09;1.52;;;1.20;;
25351;SDS011;13304;48.464;8.712;2023-11-19T08:47:36;3.60;;;1.90;;
25351;SDS011;13304;48.464;8.712;2023-11-19T08:50:02;0.68;;;0.50;;
25351;SDS011;13304;48.464;8.712;2023-11-19T08:52:29;1.25;;;0.60;;
25351;SDS011;13304;48.464;8.712;2023-11-19T08:54:55;0.80;;;0.47;;
25351;SDS011;13304;48.464;8.712;2023-11-19T08:57:21;1.35;;;0.40;;
25351;SDS011;13304;48.464;8.712;2023-11-19T08:59:49;1.87;;;1.50;;
25351;SDS011;13304;48.464;8.712;2023-11-19T09:02:15;1.77;;;1.10;;
25351;SDS011;13304;48.464;8.712;2023-11-19T09:04:41;3.38;;;1.20;;
25351;SDS011;13304;48.464;8.712;2023-11-19T09:07:07;1.08;;;0.57;;
25351;SDS011;13304;48.464;8.712;2023-11-19T09:09:34;0.63;;;0.60;;
25351;SDS011;13304;48.464;8.712;2023-11-19T09:12:01;1.50;;;0.85;;
25351;SDS011;13304;48.464;8.712;2023-11-19T09:14:28;0.95;;;0.60;;
25351;SDS011;13304;48.464;8.712;2023-11-19T09:16:55;1.00;;;0.60;;
25351;SDS011;13304;48.464;8.712;2023-11-19T09:19:21;0.70;;;0.43;;
25351;SDS011;13304;48.464;8.712;2023-11-19T09:21:48;0.95;;;0.50;;
25351;SDS011;13304;48.464;8.712;2023-11-19T09:24:14;3.08;;;0.80;;
25351;SDS011;13304;48.464;8.712;2023-11-19T09:26:40;5.65;;;1.55;;
25351;SDS011;13304;48.464;8.712;2023-11-19T09:29:09;1.38;;;0.65;;
25351;SDS011;13304;48.464;8.712;2023-11-19T09:31:37;1.20;;;0.80;;
25351;SDS011;13304;48.464;8.712;2023-11-19T09:34:03;0.75;;;0.40;;
25351;SDS011;13304;48.464;8.712;2023-11-19T09:36:28;0.90;;;0.30;;
25351;SDS011;13304;48.464;8.712;2023-11-19T09:38:54;0.32;;;0.30;;
25351;SDS011;13304;48.464;8.712;2023-11-19T09:41:20;1.30;;;0.40;;
25351;SDS011;13304;48.464;8.712;2023-11-19T09:43:45;0.50;;;0.50;;
25351;SDS011;13304;48.464;8.712;2023-11-19T09:46:14;0.43;;;0.40;;
25351;SDS011;13304;48.464;8.712;2023-11-19T09:51:08;0.45;;;0.30;;
25351;SDS011;13304;48.464;8.712;2023-11-19T09:53:34;0.60;;;0.28;;
25351;SDS011;13304;48.464;8.712;2023-11-19T09:56:01;2.17;;;0.35;;
25351;SDS011;13304;48.464;8.712;2023-11-19T09:58:31;0.90;;;0.40;;
25351;SDS011;13304;48.464;8.712;2023-11-19T10:03:28;1.25;;;0.40;;
25351;SDS011;13304;48.464;8.712;2023-11-19T10:06:02;2.40;;;0.50;;
25351;SDS011;13304;48.464;8.712;2023-11-19T10:08:29;1.30;;;0.45;;
25351;SDS011;13304;48.464;8.712;2023-11-19T10:10:55;2.00;;;0.30;;
25351;SDS011;13304;48.464;8.712;2023-11-19T10:13:25;0.93;;;0.40;;
25351;SDS011;13304;48.464;8.712;2023-11-19T10:15:52;0.98;;;0.40;;
25351;SDS011;13304;48.464;8.712;2023-11-19T10:18:18;0.22;;;0.20;;
25351;SDS011;13304;48.464;8.712;2023-11-19T10:20:48;0.30;;;0.30;;
25351;SDS011;13304;48.464;8.712;2023-11-19T10:23:14;1.52;;;0.52;;
25351;SDS011;13304;48.464;8.712;2023-11-19T10:25:40;1.25;;;0.57;;
25351;SDS011;13304;48.464;8.712;2023-11-19T10:28:05;0.43;;;0.35;;
25351;SDS011;13304;48.464;8.712;2023-11-19T10:30:31;0.95;;;0.40;;
25351;SDS011;13304;48.464;8.712;2023-11-19T10:33:11;0.85;;;0.40;;
25351;SDS011;13304;48.464;8.712;2023-11-19T10:35:55;1.73;;;0.77;;
25351;SDS011;13304;48.464;8.712;2023-11-19T10:38:22;2.45;;;0.80;;
25351;SDS011;13304;48.464;8.712;2023-11-19T10:40:49;0.85;;;0.50;;
25351;SDS011;13304;48.464;8.712;2023-11-19T10:43:18;1.60;;;0.60;;
25351;SDS011;13304;48.464;8.712;2023-11-19T10:45:44;2.33;;;0.50;;
25351;SDS011;13304;48.464;8.712;2023-11-19T10:48:10;1.90;;;0.60;;
25351;SDS011;13304;48.464;8.712;2023-11-19T10:50:38;1.15;;;0.40;;
25351;SDS011;13304;48.464;8.712;2023-11-19T10:53:08;1.75;;;0.32;;
25351;SDS011;13304;48.464;8.712;2023-11-19T10:55:35;0.55;;;0.30;;
25351;SDS011;13304;48.464;8.712;2023-11-19T10:58:07;1.73;;;0.40;;
25351;SDS011;13304;48.464;8.712;2023-11-19T11:00:45;0.90;;;0.43;;
25351;SDS011;13304;48.464;8.712;2023-11-19T11:03:19;1.20;;;0.30;;
25351;SDS011;13304;48.464;8.712;2023-11-19T11:05:48;0.30;;;0.30;;
25351;SDS011;13304;48.464;8.712;2023-11-19T11:08:18;0.50;;;0.40;;
25351;SDS011;13304;48.464;8.712;2023-11-19T11:13:28;1.05;;;0.30;;
25351;SDS011;13304;48.464;8.712;2023-11-19T11:15:55;0.50;;;0.40;;
25351;SDS011;13304;48.464;8.712;2023-11-19T11:18:23;2.00;;;0.45;;
25351;SDS011;13304;48.464;8.712;2023-11-19T11:20:51;0.80;;;0.30;;
25351;SDS011;13304;48.464;8.712;2023-11-19T11:28:41;0.30;;;0.30;;
25351;SDS011;13304;48.464;8.712;2023-11-19T11:31:35;1.05;;;0.20;;
25351;SDS011;13304;48.464;8.712;2023-11-19T11:34:12;1.08;;;0.20;;
25351;SDS011;13304;48.464;8.712;2023-11-19T11:36:46;0.30;;;0.30;;
25351;SDS011;13304;48.464;8.712;2023-11-19T11:39:14;0.30;;;0.30;;
25351;SDS011;13304;48.464;8.712;2023-11-19T11:41:41;0.70;;;0.47;;
25351;SDS011;13304;48.464;8.712;2023-11-19T11:44:06;3.03;;;0.43;;
25351;SDS011;13304;48.464;8.712;2023-11-19T11:49:08;1.75;;;0.52;;
25351;SDS011;13304;48.464;8.712;2023-11-19T11:57:01;0.70;;;0.40;;
25351;SDS011;13304;48.464;8.712;2023-11-19T12:02:10;1.58;;;0.70;;
25351;SDS011;13304;48.464;8.712;2023-11-19T12:04:42;0.93;;;0.50;;
25351;SDS011;13304;48.464;8.712;2023-11-19T12:07:12;0.88;;;0.40;;
25351;SDS011;13304;48.464;8.712;2023-11-19T12:09:47;1.40;;;0.60;;
25351;SDS011;13304;48.464;8.712;2023-11-19T12:17:37;0.90;;;0.47;;
25351;SDS011;13304;48.464;8.712;2023-11-19T12:20:08;2.70;;;0.75;;
25351;SDS011;13304;48.464;8.712;2023-11-19T12:22:37;2.10;;;0.68;;
25351;SDS011;13304;48.464;8.712;2023-11-19T12:25:07;1.58;;;0.55;;
25351;SDS011;13304;48.464;8.712;2023-11-19T12:27:44;3.13;;;0.82;;
25351;SDS011;13304;48.464;8.712;2023-11-19T12:30:16;2.80;;;0.75;;
25351;SDS011;13304;48.464;8.712;2023-11-19T12:32:44;1.80;;;0.60;;
25351;SDS011;13304;48.464;8.712;2023-11-19T12:35:10;9.50;;;0.70;;
25351;SDS011;13304;48.464;8.712;2023-11-19T12:37:43;2.15;;;0.60;;
25351;SDS011;13304;48.464;8.712;2023-11-19T12:40:11;1.75;;;0.50;;
25351;SDS011;13304;48.464;8.712;2023-11-19T12:42:38;3.10;;;0.60;;
25351;SDS011;13304;48.464;8.712;2023-11-19T12:45:04;1.60;;;0.60;;
25351;SDS011;13304;48.464;8.712;2023-11-19T12:47:30;3.75;;;0.75;;
25351;SDS011;13304;48.464;8.712;2023-11-19T12:49:56;1.23;;;0.50;;
25351;SDS011;13304;48.464;8.712;2023-11-19T12:52:23;1.27;;;0.70;;
25351;SDS011;13304;48.464;8.712;2023-11-19T12:54:49;1.00;;;0.68;;
25351;SDS011;13304;48.464;8.712;2023-11-19T12:57:15;1.30;;;0.57;;
25351;SDS011;13304;48.464;8.712;2023-11-19T12:59:41;2.55;;;0.60;;
25351;SDS011;13304;48.464;8.712;2023-11-19T13:02:08;1.48;;;0.70;;
25351;SDS011;13304;48.464;8.712;2023-11-19T13:04:34;1.48;;;0.55;;
25351;SDS011;13304;48.464;8.712;2023-11-19T13:06:59;1.58;;;0.50;;
25351;SDS011;13304;48.464;8.712;2023-11-19T13:09:28;3.53;;;0.70;;
25351;SDS011;13304;48.464;8.712;2023-11-19T13:11:54;2.72;;;0.68;;
25351;SDS011;13304;48.464;8.712;2023-11-19T13:14:21;2.25;;;1.00;;
25351;SDS011;13304;48.464;8.712;2023-11-19T13:16:48;1.70;;;0.65;;
25351;SDS011;13304;48.464;8.712;2023-11-19T13:19:14;3.85;;;0.60;;
25351;SDS011;13304;48.464;8.712;2023-11-19T13:21:41;0.55;;;0.47;;
25351;SDS011;13304;48.464;8.712;2023-11-19T13:24:07;1.02;;;0.40;;
25351;SDS011;13304;48.464;8.712;2023-11-19T13:26:33;1.63;;;0.70;;
25351;SDS011;13304;48.464;8.712;2023-11-19T13:28:59;0.93;;;0.40;;
25351;SDS011;13304;48.464;8.712;2023-11-19T13:31:25;2.30;;;0.65;;
25351;SDS011;13304;48.464;8.712;2023-11-19T13:33:51;2.28;;;0.80;;
25351;SDS011;13304;48.464;8.712;2023-11-19T13:36:17;4.00;;;0.70;;
25351;SDS011;13304;48.464;8.712;2023-11-19T13:38:43;1.08;;;0.60;;
25351;SDS011;13304;48.464;8.712;2023-11-19T13:41:11;2.65;;;0.77;;
25351;SDS011;13304;48.464;8.712;2023-11-19T13:43:37;1.83;;;0.65;;
25351;SDS011;13304;48.464;8.712;2023-11-19T13:46:03;0.82;;;0.50;;
25351;SDS011;13304;48.464;8.712;2023-11-19T13:48:29;0.75;;;0.50;;
25351;SDS011;13304;48.464;8.712;2023-11-19T13:50:56;2.20;;;0.93;;
25351;SDS011;13304;48.464;8.712;2023-11-19T13:53:22;2.15;;;0.50;;
25351;SDS011;13304;48.464;8.712;2023-11-19T13:55:50;4.07;;;0.60;;
25351;SDS011;13304;48.464;8.712;2023-11-19T13:58:16;1.67;;;0.80;;
25351;SDS011;13304;48.464;8.712;2023-11-19T14:00:42;1.58;;;0.70;;
25351;SDS011;13304;48.464;8.712;2023-11-19T14:03:08;0.90;;;0.70;;
25351;SDS011;13304;48.464;8.712;2023-11-19T14:05:37;1.38;;;0.68;;
25351;SDS011;13304;48.464;8.712;2023-11-19T14:08:04;1.45;;;0.60;;
25351;SDS011;13304;48.464;8.712;2023-11-19T14:10:36;4.40;;;0.60;;
25351;SDS011;13304;48.464;8.712;2023-11-19T14:13:08;2.28;;;0.60;;
25351;SDS011;13304;48.464;8.712;2023-11-19T14:15:34;0.60;;;0.50;;
25351;SDS011;13304;48.464;8.712;2023-11-19T14:18:00;0.93;;;0.40;;
25351;SDS011;13304;48.464;8.712;2023-11-19T14:20:26;1.83;;;0.45;;
25351;SDS011;13304;48.464;8.712;2023-11-19T14:22:52;1.27;;;0.65;;
25351;SDS011;13304;48.464;8.712;2023-11-19T14:25:18;0.60;;;0.50;;
25351;SDS011;13304;48.464;8.712;2023-11-19T14:27:44;1.00;;;0.50;;
25351;SDS011;13304;48.464;8.712;2023-11-19T14:30:14;0.75;;;0.50;;
25351;SDS011;13304;48.464;8.712;2023-11-19T14:32:41;1.30;;;0.60;;
25351;SDS011;13304;48.464;8.712;2023-11-19T14:35:09;0.88;;;0.50;;
25351;SDS011;13304;48.464;8.712;2023-11-19T14:37:35;1.67;;;0.73;;
25351;SDS011;13304;48.464;8.712;2023-11-19T14:40:01;1.13;;;0.65;;
25351;SDS011;13304;48.464;8.712;2023-11-19T14:42:33;1.70;;;0.70;;
25351;SDS011;13304;48.464;8.712;2023-11-19T14:44:59;1.42;;;0.65;;
25351;SDS011;13304;48.464;8.712;2023-11-19T14:47:24;0.80;;;0.52;;
25351;SDS011;13304;48.464;8.712;2023-11-19T14:49:50;1.08;;;0.68;;
25351;SDS011;13304;48.464;8.712;2023-11-19T14:52:16;1.30;;;0.40;;
25351;SDS011;13304;48.464;8.712;2023-11-19T14:54:42;1.88;;;0.80;;
25351;SDS011;13304;48.464;8.712;2023-11-19T14:57:07;1.08;;;0.50;;
25351;SDS011;13304;48.464;8.712;2023-11-19T14:59:34;1.80;;;0.60;;
25351;SDS011;13304;48.464;8.712;2023-11-19T15:02:00;1.35;;;0.65;;
25351;SDS011;13304;48.464;8.712;2023-11-19T15:04:26;4.07;;;0.50;;
25351;SDS011;13304;48.464;8.712;2023-11-19T15:06:52;3.08;;;0.60;;
25351;SDS011;13304;48.464;8.712;2023-11-19T15:09:18;2.95;;;0.68;;
25351;SDS011;13304;48.464;8.712;2023-11-19T15:11:46;1.52;;;0.60;;
25351;SDS011;13304;48.464;8.712;2023-11-19T15:14:12;2.25;;;0.60;;
25351;SDS011;13304;48.464;8.712;2023-11-19T15:16:44;2.95;;;0.80;;
25351;SDS011;13304;48.464;8.712;2023-11-19T15:19:10;1.08;;;0.63;;
25351;SDS011;13304;48.464;8.712;2023-11-19T15:21:37;1.50;;;0.55;;
25351;SDS011;13304;48.464;8.712;2023-11-19T15:24:04;2.95;;;0.90;;
25351;SDS011;13304;48.464;8.712;2023-11-19T15:26:32;1.13;;;0.50;;